Terminal Aerodrome Forecast
Issued by NWS Spokane, WA

Home | Current Version | Previous Version | Text Only | Print | Product List | Glossary On
Versions: 1 2 3 4 5 6 7 8 9 10 11 12 13 14 15 16 17 18 19 20 21 22 23 24 25 26 27
000
FTUS46 KOTX 251156 CCA
TAFEAT
TAF COR
KEAT 251156Z 2512/2612 28003KT P6SM FEW060
     FM251900 VRB02KT P6SM FEW040 SCT200
     FM260500 33006KT P6SM BKN080 OVC150
     FM260700 31004KT 6SM -SHSN SCT035 OVC060=

USA.gov is the U.S. government's official web portal to all federal, state and local government web resources and services.